createdAt,value
2019-03-27T00:00:40.959Z,89.69
2019-03-27T00:01:40.972Z,89.69
2019-03-27T00:02:40.935Z,89.58
2019-03-27T00:03:40.927Z,90.00
2019-03-27T00:04:40.913Z,90.00
2019-03-27T00:05:40.904Z,90.10
2019-03-27T00:06:40.917Z,90.10
2019-03-27T00:07:40.881Z,89.48
2019-03-27T00:08:40.870Z,89.48
2019-03-27T00:09:40.859Z,89.38
2019-03-27T00:10:40.848Z,89.65
2019-03-27T00:11:40.874Z,89.96
2019-03-27T00:12:40.827Z,89.44
2019-03-27T00:13:40.816Z,89.38
2019-03-27T00:14:40.805Z,89.54
2019-03-27T00:15:40.798Z,89.54
2019-03-27T00:16:40.787Z,89.75
2019-03-27T00:17:40.797Z,89.96
2019-03-27T00:18:40.766Z,89.65
2019-03-27T00:19:40.750Z,89.54
2019-03-27T00:20:40.741Z,89.75
2019-03-27T00:21:40.757Z,89.86
2019-03-27T00:22:40.744Z,89.65
2019-03-27T00:23:40.714Z,89.44
2019-03-27T00:24:40.697Z,89.54
2019-03-27T00:25:40.688Z,89.96
2019-03-27T00:26:40.675Z,89.75
2019-03-27T00:27:40.701Z,89.75
2019-03-27T00:28:40.653Z,89.65
2019-03-27T00:29:40.642Z,89.40
2019-03-27T00:30:40.632Z,89.09
2019-03-27T00:31:40.621Z,88.88
2019-03-27T00:32:40.609Z,88.67
2019-03-27T00:33:40.636Z,88.67
2019-03-27T00:34:40.587Z,88.57
2019-03-27T00:35:40.583Z,88.78
2019-03-27T00:36:40.569Z,88.78
2019-03-27T00:37:40.554Z,88.98
2019-03-27T00:38:40.543Z,88.78
2019-03-27T00:39:40.559Z,88.78
2019-03-27T00:40:40.521Z,88.88
2019-03-27T00:41:40.512Z,88.78
2019-03-27T00:42:40.500Z,88.67
2019-03-27T00:43:40.487Z,88.46
2019-03-27T00:44:40.504Z,88.16
2019-03-27T00:45:40.466Z,88.78
2019-03-27T00:46:40.458Z,88.78
2019-03-27T00:47:40.449Z,88.67
2019-03-27T00:48:40.436Z,88.67
2019-03-27T00:49:40.461Z,88.57
2019-03-27T00:50:40.414Z,88.57
2019-03-27T00:51:40.401Z,88.57
2019-03-27T00:52:40.391Z,88.46
2019-03-27T00:53:40.381Z,88.57
2019-03-27T00:54:40.410Z,88.46
2019-03-27T00:55:40.385Z,88.53
2019-03-27T00:56:40.349Z,88.46
2019-03-27T00:57:40.336Z,88.46
2019-03-27T00:58:40.326Z,88.88
2019-03-27T00:59:40.315Z,88.67
2019-03-27T01:00:40.331Z,88.78
2019-03-27T01:01:40.294Z,88.94
2019-03-27T01:02:40.284Z,88.98
2019-03-27T01:03:40.272Z,88.64
2019-03-27T01:04:40.262Z,88.88
2019-03-27T01:05:40.276Z,89.04
2019-03-27T01:06:40.239Z,88.53
2019-03-27T01:07:40.231Z,88.84
2019-03-27T01:08:40.216Z,88.74
2019-03-27T01:09:40.206Z,88.43
2019-03-27T01:10:40.220Z,88.43
2019-03-27T01:11:40.183Z,88.59
2019-03-27T01:12:40.174Z,88.70
2019-03-27T01:13:40.250Z,88.74
2019-03-27T01:14:40.152Z,88.74
2019-03-27T01:15:40.433Z,88.64
2019-03-27T01:16:40.144Z,88.84
2019-03-27T01:17:40.122Z,88.84
2019-03-27T01:18:40.112Z,88.53
2019-03-27T01:19:40.098Z,88.84
2019-03-27T01:20:40.084Z,88.84
2019-03-27T01:21:40.100Z,88.84
2019-03-27T01:22:40.064Z,88.64
2019-03-27T01:23:40.057Z,88.59
2019-03-27T01:24:40.042Z,88.80
2019-03-27T01:25:40.033Z,88.64
2019-03-27T01:26:40.064Z,89.04
2019-03-27T01:27:40.010Z,88.74
2019-03-27T01:28:39.998Z,89.25
2019-03-27T01:29:39.991Z,89.22
2019-03-27T01:30:39.977Z,88.84
2019-03-27T01:31:39.966Z,88.84
2019-03-27T01:32:39.980Z,88.59
2019-03-27T01:33:39.945Z,88.59
2019-03-27T01:34:39.934Z,88.39
2019-03-27T01:35:39.925Z,88.39
2019-03-27T01:36:39.911Z,88.59
2019-03-27T01:37:39.939Z,88.59
2019-03-27T01:38:39.888Z,88.49
2019-03-27T01:39:39.881Z,88.59
2019-03-27T01:40:39.868Z,88.59
2019-03-27T01:41:39.859Z,88.59
2019-03-27T01:42:39.846Z,88.39
2019-03-27T01:43:39.873Z,88.49
2019-03-27T01:44:39.826Z,88.39
2019-03-27T01:45:52.161Z,88.49
2019-03-27T01:46:40.801Z,88.59
2019-03-27T01:47:39.799Z,88.80
2019-03-27T01:48:39.781Z,88.70
2019-03-27T01:49:39.795Z,88.59
2019-03-27T01:50:39.760Z,88.59
2019-03-27T01:51:39.750Z,88.70
2019-03-27T01:52:39.737Z,88.70
2019-03-27T01:53:39.727Z,88.84
2019-03-27T01:54:39.741Z,88.70
2019-03-27T01:55:39.707Z,89.22
2019-03-27T01:56:39.694Z,88.80
2019-03-27T01:57:39.686Z,88.70
2019-03-27T01:58:39.672Z,88.70
2019-03-27T01:59:39.698Z,88.59
2019-03-27T02:00:39.650Z,88.49
2019-03-27T02:01:39.644Z,88.49
2019-03-27T02:02:39.700Z,88.59
2019-03-27T02:03:39.619Z,88.59
2019-03-27T02:04:39.605Z,88.94
2019-03-27T02:05:39.619Z,89.01
2019-03-27T02:06:39.585Z,89.22
2019-03-27T02:07:39.591Z,88.84
2019-03-27T02:08:39.560Z,89.25
2019-03-27T02:09:39.556Z,89.36
2019-03-27T02:10:39.568Z,89.25
2019-03-27T02:11:39.530Z,89.22
2019-03-27T02:12:39.522Z,89.87
2019-03-27T02:13:39.508Z,89.98
2019-03-27T02:14:39.535Z,89.56
2019-03-27T02:15:39.526Z,89.56
2019-03-27T02:16:39.474Z,89.56
2019-03-27T02:17:39.464Z,89.56
2019-03-27T02:18:39.452Z,89.67
2019-03-27T02:19:39.442Z,89.67
2019-03-27T02:20:39.431Z,89.36
2019-03-27T02:21:39.502Z,89.98
2019-03-27T02:22:39.410Z,89.77
2019-03-27T02:23:39.399Z,89.56
2019-03-27T02:24:39.388Z,89.67
2019-03-27T02:25:39.376Z,90.08
2019-03-27T02:26:39.397Z,90.19
2019-03-27T02:27:39.354Z,90.33
2019-03-27T02:28:39.344Z,91.11
2019-03-27T02:29:39.334Z,90.91
2019-03-27T02:30:39.432Z,91.05
2019-03-27T02:31:39.349Z,91.05
2019-03-27T02:32:39.302Z,91.01
2019-03-27T02:33:39.290Z,91.22
2019-03-27T02:34:39.279Z,91.11
2019-03-27T02:35:39.282Z,91.26
2019-03-27T02:36:39.258Z,91.42
2019-03-27T02:37:39.285Z,91.32
2019-03-27T02:38:39.236Z,91.53
2019-03-27T02:39:39.225Z,91.32
2019-03-27T02:40:39.234Z,91.42
2019-03-27T02:41:39.206Z,91.42
2019-03-27T02:42:39.194Z,91.32
2019-03-27T02:43:39.207Z,91.11
2019-03-27T02:44:39.178Z,91.11
2019-03-27T02:45:39.159Z,91.94
2019-03-27T02:46:39.153Z,91.32
2019-03-27T02:47:39.147Z,91.53
2019-03-27T02:48:39.165Z,91.53
2019-03-27T02:49:39.126Z,91.32
2019-03-27T02:50:39.104Z,91.53
2019-03-27T02:51:39.095Z,91.42
2019-03-27T02:52:39.083Z,91.42
2019-03-27T02:53:39.076Z,91.53
2019-03-27T02:54:39.088Z,91.63
2019-03-27T02:55:39.051Z,91.53
2019-03-27T02:56:39.039Z,91.42
2019-03-27T02:57:39.032Z,91.94
2019-03-27T02:58:39.020Z,91.94
2019-03-27T02:59:39.043Z,91.74
2019-03-27T03:00:38.995Z,91.69
2019-03-27T03:01:38.986Z,91.84
2019-03-27T03:02:39.019Z,91.74
2019-03-27T03:03:38.967Z,91.90
2019-03-27T03:04:38.953Z,92.05
2019-03-27T03:05:38.963Z,92.15
2019-03-27T03:06:38.935Z,91.90
2019-03-27T03:07:38.919Z,92.46
2019-03-27T03:08:38.916Z,92.36
2019-03-27T03:09:38.902Z,92.36
2019-03-27T03:10:38.925Z,92.46
2019-03-27T03:11:38.877Z,93.08
2019-03-27T03:12:38.865Z,92.97
2019-03-27T03:13:38.854Z,93.04
2019-03-27T03:14:38.844Z,92.97
2019-03-27T03:15:38.836Z,92.97
2019-03-27T03:16:42.587Z,93.08
2019-03-27T03:17:38.829Z,93.04
2019-03-27T03:18:38.799Z,92.97
2019-03-27T03:19:38.788Z,93.08
2019-03-27T03:20:38.777Z,93.08
2019-03-27T03:21:38.805Z,93.08
2019-03-27T03:22:38.758Z,93.04
2019-03-27T03:23:38.745Z,92.93
2019-03-27T03:24:38.734Z,92.97
2019-03-27T03:25:38.724Z,92.87
2019-03-27T03:26:38.721Z,92.87
2019-03-27T03:27:38.737Z,92.77
2019-03-27T03:28:38.702Z,92.77
2019-03-27T03:29:38.801Z,92.52
2019-03-27T03:30:38.691Z,92.63
2019-03-27T03:31:38.664Z,92.57
2019-03-27T03:32:38.671Z,92.57
2019-03-27T03:33:38.661Z,92.63
2019-03-27T03:34:38.626Z,92.63
2019-03-27T03:35:38.612Z,92.52
2019-03-27T03:36:38.610Z,92.93
2019-03-27T03:37:38.602Z,92.83
2019-03-27T03:38:38.618Z,93.39
2019-03-27T03:39:38.570Z,93.14
2019-03-27T03:40:38.558Z,93.14
2019-03-27T03:41:38.549Z,93.14
2019-03-27T03:42:38.539Z,93.45
2019-03-27T03:43:38.527Z,93.35
2019-03-27T03:44:38.552Z,93.24
2019-03-27T03:45:38.503Z,93.24
2019-03-27T03:46:38.496Z,93.14
2019-03-27T03:47:38.487Z,93.24
2019-03-27T03:48:38.480Z,93.35
2019-03-27T03:49:38.463Z,93.14
2019-03-27T03:50:38.492Z,93.35
2019-03-27T03:51:38.439Z,93.14
2019-03-27T03:52:38.442Z,93.45
2019-03-27T03:53:38.418Z,93.14
2019-03-27T03:54:38.413Z,93.04
2019-03-27T03:55:38.398Z,93.04
2019-03-27T03:56:38.416Z,92.99
2019-03-27T03:57:38.375Z,92.99
2019-03-27T03:58:38.362Z,93.14
2019-03-27T03:59:38.352Z,93.24
2019-03-27T04:00:38.341Z,93.24
2019-03-27T04:01:38.354Z,93.30
2019-03-27T04:02:38.321Z,93.30
2019-03-27T04:03:38.312Z,93.24
2019-03-27T04:04:38.299Z,93.20
2019-03-27T04:05:38.289Z,93.10
2019-03-27T04:06:38.312Z,93.24
2019-03-27T04:07:38.269Z,93.24
2019-03-27T04:08:38.260Z,93.45
2019-03-27T04:09:38.245Z,93.24
2019-03-27T04:10:38.232Z,93.35
2019-03-27T04:11:38.223Z,93.20
2019-03-27T04:12:38.235Z,93.20
2019-03-27T04:13:38.205Z,93.10
2019-03-27T04:14:38.190Z,93.20
2019-03-27T04:15:38.178Z,92.68
2019-03-27T04:16:38.174Z,93.45
2019-03-27T04:17:38.269Z,92.68
2019-03-27T04:18:38.151Z,92.54
2019-03-27T04:19:38.153Z,92.58
2019-03-27T04:20:38.125Z,92.79
2019-03-27T04:21:38.116Z,92.79
2019-03-27T04:22:38.122Z,92.79
2019-03-27T04:23:38.116Z,92.79
2019-03-27T04:24:38.210Z,92.79
2019-03-27T04:26:06.901Z,92.79
2019-03-27T04:26:39.058Z,92.89
2019-03-27T04:27:38.046Z,93.41
2019-03-27T04:28:38.063Z,93.10
2019-03-27T04:29:38.032Z,92.99
2019-03-27T04:30:38.017Z,92.79
2019-03-27T04:31:38.010Z,93.16
2019-03-27T04:32:38.032Z,92.74
2019-03-27T04:33:38.011Z,92.74
2019-03-27T04:34:37.974Z,92.74
2019-03-27T04:35:37.964Z,92.85
2019-03-27T04:36:37.950Z,92.54
2019-03-27T04:37:37.940Z,92.54
2019-03-27T04:38:37.969Z,92.64
2019-03-27T04:39:37.918Z,92.64
2019-03-27T04:40:37.914Z,92.54
2019-03-27T04:41:37.898Z,92.54
2019-03-27T04:42:37.887Z,92.95
2019-03-27T04:43:37.876Z,92.74
2019-03-27T04:44:37.895Z,92.74
2019-03-27T04:45:37.857Z,92.85
2019-03-27T04:46:37.845Z,92.74
2019-03-27T04:47:37.832Z,92.74
2019-03-27T04:48:37.828Z,92.74
2019-03-27T04:49:37.849Z,92.74
2019-03-27T04:50:37.800Z,92.85
2019-03-27T04:51:37.789Z,92.54
2019-03-27T04:52:37.784Z,92.64
2019-03-27T04:53:37.768Z,92.64
2019-03-27T04:54:37.759Z,92.54
2019-03-27T04:55:37.784Z,92.64
2019-03-27T04:56:37.737Z,92.95
2019-03-27T04:57:37.728Z,92.95
2019-03-27T04:58:37.716Z,92.64
2019-03-27T04:59:37.704Z,92.54
2019-03-27T05:00:37.694Z,92.74
2019-03-27T05:01:37.720Z,93.05
2019-03-27T05:02:37.672Z,93.16
2019-03-27T05:03:37.662Z,92.54
2019-03-27T05:04:37.651Z,93.37
2019-03-27T05:05:37.643Z,92.64
2019-03-27T05:06:37.630Z,92.74
2019-03-27T05:07:37.655Z,92.70
2019-03-27T05:08:37.608Z,93.12
2019-03-27T05:09:37.599Z,92.80
2019-03-27T05:10:37.588Z,92.40
2019-03-27T05:11:37.579Z,92.70
2019-03-27T05:12:38.846Z,92.70
2019-03-27T05:13:37.592Z,92.74
2019-03-27T05:14:37.545Z,92.70
2019-03-27T05:15:37.532Z,92.70
2019-03-27T05:16:37.523Z,93.22
2019-03-27T05:17:45.933Z,93.16
2019-03-27T05:18:38.544Z,93.16
2019-03-27T05:19:37.491Z,93.37
2019-03-27T05:20:37.480Z,93.53
2019-03-27T05:21:37.469Z,93.26
2019-03-27T05:22:37.458Z,93.37
2019-03-27T05:23:37.448Z,93.84
2019-03-27T05:24:37.463Z,93.73
2019-03-27T05:25:37.428Z,93.57
2019-03-27T05:26:37.418Z,93.84
2019-03-27T05:27:37.410Z,93.43
2019-03-27T05:28:37.395Z,93.43
2019-03-27T05:29:37.420Z,93.43
2019-03-27T05:30:37.372Z,93.53
2019-03-27T05:31:37.360Z,93.63
2019-03-27T05:32:37.352Z,93.43
2019-03-27T05:33:37.342Z,93.22
2019-03-27T05:34:37.330Z,93.22
2019-03-27T05:35:37.346Z,93.53
2019-03-27T05:36:37.311Z,93.22
2019-03-27T05:37:37.297Z,93.38
2019-03-27T05:38:37.288Z,93.43
2019-03-27T05:39:37.276Z,92.97
2019-03-27T05:40:37.290Z,93.28
2019-03-27T05:41:37.255Z,93.63
2019-03-27T05:42:37.244Z,93.43
2019-03-27T05:43:37.232Z,93.22
2019-03-27T05:44:37.224Z,93.32
2019-03-27T05:45:37.237Z,92.91
2019-03-27T05:46:37.201Z,93.22
2019-03-27T05:47:37.190Z,93.73
2019-03-27T05:48:37.181Z,93.22
2019-03-27T05:49:37.170Z,93.43
2019-03-27T05:50:37.184Z,93.38
2019-03-27T05:51:37.149Z,92.97
2019-03-27T05:52:37.136Z,93.53
2019-03-27T05:53:37.128Z,93.18
2019-03-27T05:54:37.115Z,93.18
2019-03-27T05:55:37.147Z,93.59
2019-03-27T05:56:37.099Z,93.43
2019-03-27T05:57:37.084Z,93.22
2019-03-27T05:58:37.072Z,93.69
2019-03-27T05:59:37.062Z,93.84
2019-03-27T06:00:37.053Z,93.79
2019-03-27T06:01:37.078Z,93.69
2019-03-27T06:02:37.030Z,93.59
2019-03-27T06:03:37.019Z,93.59
2019-03-27T06:04:37.010Z,93.79
2019-03-27T06:05:36.998Z,93.90
2019-03-27T06:06:36.988Z,93.79
2019-03-27T06:07:37.000Z,93.90
2019-03-27T06:08:36.966Z,93.90
2019-03-27T06:09:36.955Z,93.90
2019-03-27T06:10:36.944Z,94.31
2019-03-27T06:11:36.933Z,93.90
2019-03-27T06:12:36.948Z,93.79
2019-03-27T06:13:36.920Z,94.42
2019-03-27T06:14:36.902Z,94.46
2019-03-27T06:15:36.890Z,94.42
2019-03-27T06:16:36.881Z,94.52
2019-03-27T06:17:36.894Z,94.42
2019-03-27T06:18:36.858Z,94.52
2019-03-27T06:19:36.847Z,94.52
2019-03-27T06:20:36.837Z,94.21
2019-03-27T06:21:36.825Z,94.21
2019-03-27T06:22:36.839Z,94.42
2019-03-27T06:23:36.804Z,93.90
2019-03-27T06:24:36.793Z,93.69
2019-03-27T06:25:36.784Z,93.79
2019-03-27T06:26:36.776Z,93.79
2019-03-27T06:27:36.798Z,93.38
2019-03-27T06:28:36.750Z,93.69
2019-03-27T06:29:36.741Z,93.38
2019-03-27T06:30:36.732Z,93.34
2019-03-27T06:31:36.719Z,93.28
2019-03-27T06:32:36.706Z,93.13
2019-03-27T06:33:36.730Z,93.13
2019-03-27T06:34:36.684Z,93.03
2019-03-27T06:35:36.677Z,92.72
2019-03-27T06:36:36.662Z,92.72
2019-03-27T06:37:36.651Z,92.41
2019-03-27T06:38:36.639Z,91.89
2019-03-27T06:39:36.669Z,91.69
2019-03-27T06:40:39.601Z,91.79
2019-03-27T06:41:36.610Z,91.28
2019-03-27T06:42:36.596Z,91.17
2019-03-27T06:43:36.586Z,91.48
2019-03-27T06:44:36.575Z,91.07
2019-03-27T06:45:36.588Z,90.86
2019-03-27T06:46:36.553Z,91.34
2019-03-27T06:47:36.541Z,90.45
2019-03-27T06:48:36.530Z,90.82
2019-03-27T06:49:36.518Z,89.89
2019-03-27T06:50:36.533Z,90.10
2019-03-27T06:51:40.292Z,89.89
2019-03-27T06:52:36.487Z,90.00
2019-03-27T06:53:36.473Z,90.10
2019-03-27T06:54:36.463Z,89.69
2019-03-27T06:55:36.479Z,89.34
2019-03-27T06:56:36.443Z,89.65
2019-03-27T06:57:36.430Z,89.13
2019-03-27T06:58:36.418Z,88.62
2019-03-27T06:59:36.407Z,88.31
2019-03-27T07:00:36.426Z,88.20
2019-03-27T07:01:36.386Z,88.37
2019-03-27T07:02:36.376Z,87.54
2019-03-27T07:03:36.363Z,87.75
2019-03-27T07:04:36.353Z,87.44
2019-03-27T07:05:36.366Z,87.03
2019-03-27T07:06:36.330Z,87.34
2019-03-27T07:07:36.318Z,87.34
2019-03-27T07:08:36.305Z,87.44
2019-03-27T07:09:36.295Z,87.34
2019-03-27T07:10:36.311Z,86.93
2019-03-27T07:11:36.273Z,87.13
2019-03-27T07:12:36.263Z,86.61
2019-03-27T07:13:36.251Z,86.61
2019-03-27T07:14:36.245Z,86.82
2019-03-27T07:15:36.265Z,86.72
2019-03-27T07:16:36.219Z,86.41
2019-03-27T07:17:36.209Z,86.06
2019-03-27T07:18:40.351Z,85.55
2019-03-27T07:19:36.191Z,85.79
2019-03-27T07:20:36.174Z,85.86
2019-03-27T07:21:36.205Z,85.17
2019-03-27T07:22:36.154Z,85.14
2019-03-27T07:23:36.153Z,85.24
2019-03-27T07:24:36.134Z,85.03
2019-03-27T07:25:36.123Z,84.48
2019-03-27T07:26:36.111Z,84.62
2019-03-27T07:27:36.127Z,84.21
2019-03-27T07:28:36.091Z,84.07
2019-03-27T07:29:36.083Z,84.58
2019-03-27T07:30:36.075Z,84.21
2019-03-27T07:31:36.109Z,84.11
2019-03-27T07:32:36.077Z,84.17
2019-03-27T07:33:36.040Z,84.21
2019-03-27T07:34:36.027Z,83.70
2019-03-27T07:35:36.017Z,83.25
2019-03-27T07:36:36.007Z,82.42
2019-03-27T07:37:36.031Z,82.93
2019-03-27T07:38:35.981Z,82.32
2019-03-27T07:39:35.976Z,82.42
2019-03-27T07:40:35.960Z,82.63
2019-03-27T07:41:35.950Z,82.53
2019-03-27T07:42:35.938Z,82.32
2019-03-27T07:44:05.559Z,82.42
2019-03-27T07:44:35.916Z,82.53
2019-03-27T07:45:35.906Z,82.53
2019-03-27T07:46:35.892Z,82.53
2019-03-27T07:47:35.881Z,82.32
2019-03-27T07:48:35.872Z,82.32
2019-03-27T07:49:35.896Z,82.48
2019-03-27T07:50:35.848Z,81.97
2019-03-27T07:51:35.837Z,81.56
2019-03-27T07:52:35.829Z,81.35
2019-03-27T07:53:35.817Z,81.35
2019-03-27T07:54:35.803Z,81.05
2019-03-27T07:55:35.831Z,80.94
2019-03-27T07:56:35.784Z,80.84
2019-03-27T07:57:35.769Z,80.33
2019-03-27T07:58:35.758Z,80.53
2019-03-27T07:59:35.750Z,79.81
2019-03-27T08:00:35.760Z,80.33
2019-03-27T08:01:35.725Z,80.33
2019-03-27T08:02:35.713Z,80.53
2019-03-27T08:03:35.702Z,80.53
2019-03-27T08:04:35.693Z,80.84
2019-03-27T08:05:35.706Z,80.84
2019-03-27T08:06:35.670Z,81.46
2019-03-27T08:07:35.657Z,80.88
2019-03-27T08:08:35.648Z,81.29
2019-03-27T08:09:35.635Z,82.11
2019-03-27T08:10:35.651Z,81.91
2019-03-27T08:11:35.733Z,81.29
2019-03-27T08:12:35.602Z,81.60
2019-03-27T08:13:35.591Z,81.29
2019-03-27T08:14:35.580Z,81.49
2019-03-27T08:15:35.605Z,80.94
2019-03-27T08:16:35.565Z,81.15
2019-03-27T08:17:35.549Z,81.15
2019-03-27T08:18:35.534Z,81.11
2019-03-27T08:19:35.523Z,80.49
2019-03-27T08:20:35.513Z,80.29
2019-03-27T08:21:35.561Z,80.08
2019-03-27T08:22:35.490Z,80.08
2019-03-27T08:23:35.478Z,79.77
2019-03-27T08:24:35.468Z,80.08
2019-03-27T08:25:35.458Z,80.63
2019-03-27T08:26:35.447Z,80.94
2019-03-27T08:27:35.460Z,80.94
2019-03-27T08:28:35.505Z,81.25
2019-03-27T08:29:35.414Z,80.94
2019-03-27T08:30:35.401Z,80.12
2019-03-27T08:31:35.396Z,80.84
2019-03-27T08:32:37.524Z,81.29
2019-03-27T08:33:35.369Z,81.09
2019-03-27T08:34:35.356Z,80.84
2019-03-27T08:35:35.349Z,80.63
2019-03-27T08:36:35.340Z,80.43
2019-03-27T08:37:35.327Z,80.33
2019-03-27T08:38:35.400Z,80.53
2019-03-27T08:39:35.301Z,81.09
2019-03-27T08:40:35.292Z,81.25
2019-03-27T08:41:35.287Z,81.46
2019-03-27T08:42:35.269Z,80.77
2019-03-27T08:43:35.286Z,81.25
2019-03-27T08:44:35.249Z,81.15
2019-03-27T08:45:35.235Z,81.46
2019-03-27T08:46:35.223Z,80.98
2019-03-27T08:47:35.212Z,81.56
2019-03-27T08:48:35.230Z,81.25
2019-03-27T08:49:35.189Z,81.35
2019-03-27T08:50:35.178Z,81.29
2019-03-27T08:51:35.168Z,80.88
2019-03-27T08:52:35.155Z,81.09
2019-03-27T08:53:35.185Z,81.19
2019-03-27T08:54:35.132Z,81.25
2019-03-27T08:55:35.122Z,81.19
2019-03-27T08:56:35.118Z,81.39
2019-03-27T08:57:35.099Z,81.19
2019-03-27T08:58:35.088Z,81.67
2019-03-27T08:59:35.117Z,81.56
2019-03-27T09:00:35.071Z,81.25
2019-03-27T09:01:35.057Z,81.15
2019-03-27T09:02:35.044Z,81.25
2019-03-27T09:03:35.031Z,81.15
2019-03-27T09:04:35.023Z,80.60
2019-03-27T09:05:35.036Z,79.77
2019-03-27T09:06:35.006Z,79.63
2019-03-27T09:07:34.989Z,79.08
2019-03-27T09:08:34.982Z,78.78
2019-03-27T09:09:34.971Z,79.08
2019-03-27T09:10:34.982Z,78.81
2019-03-27T09:11:34.946Z,79.02
2019-03-27T09:12:34.939Z,78.92
2019-03-27T09:13:34.929Z,78.81
2019-03-27T09:14:34.915Z,78.92
2019-03-27T09:15:34.942Z,79.02
2019-03-27T09:16:34.893Z,79.02
2019-03-27T09:17:34.881Z,79.12
2019-03-27T09:18:34.873Z,79.12
2019-03-27T09:19:36.362Z,79.12
2019-03-27T09:20:34.849Z,78.88
2019-03-27T09:21:34.864Z,78.57
2019-03-27T09:22:34.828Z,78.47
2019-03-27T09:23:34.821Z,78.16
2019-03-27T09:24:34.810Z,78.16
2019-03-27T09:25:34.798Z,77.75
2019-03-27T09:26:34.809Z,77.40
2019-03-27T09:27:34.796Z,76.38
2019-03-27T09:28:34.764Z,76.24
2019-03-27T09:29:34.753Z,76.45
2019-03-27T09:30:34.750Z,75.32
2019-03-27T09:31:44.731Z,75.83
2019-03-27T09:32:35.727Z,75.62
2019-03-27T09:33:34.708Z,76.34
2019-03-27T09:34:34.700Z,75.79
2019-03-27T09:35:34.685Z,75.11
2019-03-27T09:36:34.673Z,75.21
2019-03-27T09:37:34.724Z,75.52
2019-03-27T09:38:34.653Z,76.07
2019-03-27T09:39:34.642Z,76.55
2019-03-27T09:40:34.631Z,76.45
2019-03-27T09:41:34.620Z,76.45
2019-03-27T09:42:34.608Z,75.93
2019-03-27T09:43:34.625Z,76.24
2019-03-27T09:44:34.589Z,75.62
2019-03-27T09:45:34.575Z,75.49
2019-03-27T09:46:34.564Z,75.52
2019-03-27T09:47:34.905Z,75.59
2019-03-27T09:48:34.577Z,75.69
2019-03-27T09:49:48.635Z,75.59
2019-03-27T09:50:35.521Z,74.57
2019-03-27T09:51:34.509Z,74.77
2019-03-27T09:52:34.498Z,74.77
2019-03-27T09:53:34.491Z,74.26
2019-03-27T09:54:34.500Z,74.57
2019-03-27T09:55:34.463Z,74.66
2019-03-27T09:56:34.454Z,74.36
2019-03-27T09:57:34.447Z,74.80
2019-03-27T09:58:34.430Z,75.01
2019-03-27T09:59:34.460Z,76.34
2019-03-27T10:00:34.409Z,75.21
2019-03-27T10:01:34.410Z,75.73
2019-03-27T10:02:34.387Z,75.73
2019-03-27T10:03:34.375Z,76.04
2019-03-27T10:04:34.364Z,75.49
2019-03-27T10:05:34.409Z,75.83
2019-03-27T10:06:34.350Z,75.32
2019-03-27T10:07:34.329Z,75.69
2019-03-27T10:08:34.316Z,76.45
2019-03-27T10:09:34.308Z,76.24
2019-03-27T10:10:34.348Z,75.62
2019-03-27T10:11:34.286Z,75.83
2019-03-27T10:12:34.275Z,75.73
2019-03-27T10:13:34.262Z,75.62
2019-03-27T10:14:34.253Z,75.32
2019-03-27T10:15:34.274Z,75.52
2019-03-27T10:16:34.227Z,75.69
2019-03-27T10:17:34.217Z,75.28
2019-03-27T10:18:34.207Z,75.38
2019-03-27T10:19:34.195Z,75.79
2019-03-27T10:20:34.208Z,75.69
2019-03-27T10:21:34.173Z,75.96
2019-03-27T10:22:34.161Z,75.49
2019-03-27T10:23:34.150Z,75.24
2019-03-27T10:24:34.138Z,74.22
2019-03-27T10:25:34.164Z,74.53
2019-03-27T10:26:34.117Z,74.32
2019-03-27T10:27:34.109Z,73.71
2019-03-27T10:28:34.095Z,73.81
2019-03-27T10:29:34.083Z,74.12
2019-03-27T10:30:34.072Z,74.02
2019-03-27T10:31:34.085Z,73.91
2019-03-27T10:32:34.048Z,74.43
2019-03-27T10:33:34.038Z,74.60
2019-03-27T10:34:34.027Z,74.02
2019-03-27T10:35:34.017Z,73.81
2019-03-27T10:36:34.034Z,73.98
2019-03-27T10:37:33.995Z,73.81
2019-03-27T10:38:33.982Z,73.71
2019-03-27T10:39:33.971Z,74.12
2019-03-27T10:40:33.963Z,73.91
2019-03-27T10:41:33.976Z,73.81
2019-03-27T10:42:33.946Z,74.02
2019-03-27T10:43:33.927Z,74.12
2019-03-27T10:44:33.916Z,73.74
2019-03-27T10:45:33.910Z,73.74
2019-03-27T10:46:33.920Z,74.22
2019-03-27T10:47:33.886Z,74.05
2019-03-27T10:48:33.872Z,73.71
2019-03-27T10:49:34.557Z,73.81
2019-03-27T10:50:33.851Z,73.61
2019-03-27T10:51:33.887Z,73.81
2019-03-27T10:52:33.828Z,73.71
2019-03-27T10:53:33.818Z,73.71
2019-03-27T10:54:33.807Z,72.99
2019-03-27T10:55:34.574Z,72.48
2019-03-27T10:56:33.785Z,72.78
2019-03-27T10:57:33.813Z,72.48
2019-03-27T10:58:33.767Z,73.50
2019-03-27T10:59:33.751Z,73.33
2019-03-27T11:00:33.742Z,73.40
2019-03-27T11:01:33.733Z,73.54
2019-03-27T11:02:33.719Z,73.61
2019-03-27T11:03:33.745Z,74.15
2019-03-27T11:04:33.697Z,73.74
2019-03-27T11:05:33.684Z,74.57
2019-03-27T11:06:33.676Z,74.43
2019-03-27T11:07:33.666Z,74.84
2019-03-27T11:08:33.654Z,73.91
2019-03-27T11:09:33.667Z,74.12
2019-03-27T11:10:33.631Z,74.12
2019-03-27T11:11:33.619Z,74.08
2019-03-27T11:12:33.611Z,73.68
2019-03-27T11:13:34.554Z,73.71
2019-03-27T11:14:38.224Z,74.05
2019-03-27T11:15:33.576Z,74.12
2019-03-27T11:16:33.565Z,74.12
2019-03-27T11:17:33.552Z,73.81
2019-03-27T11:18:33.543Z,73.71
2019-03-27T11:19:33.856Z,73.50
2019-03-27T11:20:33.521Z,73.27
2019-03-27T11:21:33.509Z,73.71
2019-03-27T11:22:33.497Z,73.91
2019-03-27T11:23:33.493Z,74.02
2019-03-27T11:24:33.478Z,73.91
2019-03-27T11:25:33.584Z,74.57
2019-03-27T11:26:33.452Z,74.53
2019-03-27T11:27:33.441Z,74.73
2019-03-27T11:28:33.431Z,75.45
2019-03-27T11:29:33.423Z,75.08
2019-03-27T11:30:33.435Z,75.35
2019-03-27T11:31:33.403Z,74.63
2019-03-27T11:32:33.387Z,74.32
2019-03-27T11:33:33.377Z,74.60
2019-03-27T11:34:33.361Z,74.29
2019-03-27T11:35:33.377Z,75.56
2019-03-27T11:36:35.192Z,75.45
2019-03-27T11:37:33.328Z,75.18
2019-03-27T11:38:33.318Z,75.86
2019-03-27T11:39:33.309Z,75.69
2019-03-27T11:40:33.323Z,75.15
2019-03-27T11:41:33.288Z,74.46
2019-03-27T11:42:33.278Z,73.95
2019-03-27T11:43:33.267Z,73.88
2019-03-27T11:44:33.259Z,74.49
2019-03-27T11:45:33.269Z,74.08
2019-03-27T11:46:33.270Z,74.77
2019-03-27T11:47:33.220Z,74.36
2019-03-27T11:48:33.211Z,73.85
2019-03-27T11:49:33.199Z,74.05
2019-03-27T11:50:44.211Z,73.85
2019-03-27T11:51:34.175Z,73.95
2019-03-27T11:52:33.164Z,74.05
2019-03-27T11:53:33.153Z,74.46
2019-03-27T11:54:33.149Z,73.64
2019-03-27T11:55:33.133Z,73.74
2019-03-27T11:56:33.147Z,73.88
2019-03-27T11:57:33.111Z,74.66
2019-03-27T11:58:33.101Z,74.08
2019-03-27T11:59:33.089Z,74.39
2019-03-27T12:00:33.079Z,74.60
2019-03-27T12:01:39.650Z,74.36
2019-03-27T12:02:34.056Z,73.95
2019-03-27T12:03:33.045Z,73.85
2019-03-27T12:04:33.035Z,73.85
2019-03-27T12:05:33.024Z,73.50
2019-03-27T12:06:33.095Z,73.10
2019-03-27T12:07:33.041Z,72.99
2019-03-27T12:08:32.993Z,73.13
2019-03-27T12:09:32.981Z,73.23
2019-03-27T12:10:32.969Z,73.64
2019-03-27T12:11:32.958Z,73.44
2019-03-27T12:12:32.948Z,73.54
2019-03-27T12:13:32.974Z,74.05
2019-03-27T12:14:32.926Z,74.15
2019-03-27T12:15:32.914Z,74.56
2019-03-27T12:16:32.903Z,74.66
2019-03-27T12:17:32.895Z,74.53
2019-03-27T12:18:32.887Z,73.47
2019-03-27T12:19:32.901Z,71.53
2019-03-27T12:20:32.861Z,70.98
2019-03-27T12:21:32.849Z,70.17
2019-03-27T12:22:32.847Z,70.71
2019-03-27T12:23:32.900Z,70.30
2019-03-27T12:24:32.842Z,69.59
2019-03-27T12:25:32.808Z,70.75
2019-03-27T12:26:32.797Z,71.25
2019-03-27T12:27:32.792Z,71.19
2019-03-27T12:28:32.775Z,71.70
2019-03-27T12:29:32.799Z,71.39
2019-03-27T12:30:32.790Z,71.01
2019-03-27T12:31:32.745Z,71.42
2019-03-27T12:32:32.728Z,71.73
2019-03-27T12:33:32.717Z,71.83
2019-03-27T12:34:32.705Z,72.00
2019-03-27T12:35:32.721Z,71.70
2019-03-27T12:36:32.683Z,71.08
2019-03-27T12:37:32.673Z,70.75
2019-03-27T12:38:32.662Z,70.54
2019-03-27T12:39:32.651Z,70.34
2019-03-27T12:40:32.665Z,70.43
2019-03-27T12:41:33.127Z,70.37
2019-03-27T12:42:32.619Z,70.34
2019-03-27T12:43:32.609Z,70.34
2019-03-27T12:44:32.594Z,69.82
2019-03-27T12:45:32.607Z,70.13
2019-03-27T12:46:32.576Z,70.26
2019-03-27T12:47:32.565Z,70.57
2019-03-27T12:48:32.555Z,70.57
2019-03-27T12:49:32.541Z,70.61
2019-03-27T12:50:32.554Z,71.32
2019-03-27T12:51:32.518Z,71.42
2019-03-27T12:52:32.507Z,71.56